Airport ICAO


14:35 UTC

10°C

Few clouds


An affordable passengers' Moving Map for your aircraft. Made for the iPad and the iPhone
More information here

LFPT Cormeilles En Vexin


Pontoise FRANCE   VFR


METAR LFPT 241430Z AUTO 21003KT 9999 FEW027 10/07 Q1012 0h05min





NOTAMS

OPEN